Time;durP1;ratioP1;P1;durP2;ratioP2;P2;SDS_P1;SDS_P2;PMS_P1;PMS_P2;Temp;Humidity;BMP_temperature;BMP_pressure;BME280_temperature;BME280_humidity;BME280_pressure;Samples;Min_cycle;Max_cycle;Signal;HPM_P1;HPM_P2
2022/08/20 00:01:48;;;;;;;16.90;13.88;;;;;;;;;;5067186;28;20918;-81
2022/08/20 00:04:14;;;;;;;16.30;14.60;;;;;;;;;;5071226;28;20445;-80
2022/08/20 00:06:41;;;;;;;18.33;15.15;;;;;;;;;;5069888;28;20479;-80
2022/08/20 00:09:07;;;;;;;18.45;15.25;;;;;;;;;;5073700;28;20429;-81
2022/08/20 00:11:35;;;;;;;15.63;13.82;;;;;;;;;;5092039;28;20431;-80
2022/08/20 00:14:04;;;;;;;17.25;13.80;;;;;;;;;;5072152;28;20422;-81
2022/08/20 00:16:31;;;;;;;12.63;11.33;;;;;;;;;;5071068;28;20442;-80
2022/08/20 00:18:58;;;;;;;12.32;11.02;;;;;;;;;;5069978;28;20411;-80
2022/08/20 00:21:24;;;;;;;12.73;11.27;;;;;;;;;;5068623;28;20469;-81
2022/08/20 00:23:51;;;;;;;12.23;10.47;;;;;;;;;;5072918;28;20419;-81
2022/08/20 00:26:18;;;;;;;11.10;9.80;;;;;;;;;;5071676;28;20436;-82
2022/08/20 00:28:45;;;;;;;11.85;10.20;;;;;;;;;;5071644;28;20400;-81
2022/08/20 00:31:13;;;;;;;11.57;10.38;;;;;;;;;;5062373;28;20767;-82
2022/08/20 00:33:40;;;;;;;10.05;9.05;;;;;;;;;;5070072;28;20433;-82
2022/08/20 00:36:08;;;;;;;13.82;11.13;;;;;;;;;;5070138;28;20436;-81
2022/08/20 00:38:35;;;;;;;11.48;10.38;;;;;;;;;;5070173;28;20423;-80
2022/08/20 00:41:02;;;;;;;9.63;8.73;;;;;;;;;;5062912;28;20428;-81
2022/08/20 00:43:33;;;;;;;10.80;8.90;;;;;;;;;;5070874;28;20423;-80
2022/08/20 00:46:01;;;;;;;13.23;10.30;;;;;;;;;;5069448;28;20423;-81
2022/08/20 00:48:29;;;;;;;11.15;9.20;;;;;;;;;;5066134;28;20518;-81
2022/08/20 00:50:59;;;;;;;12.07;10.40;;;;;;;;;;5070759;28;20437;-81
2022/08/20 00:53:27;;;;;;;11.32;10.23;;;;;;;;;;5069258;28;20424;-80
2022/08/20 00:55:55;;;;;;;13.00;11.07;;;;;;;;;;5100067;28;20487;-80
2022/08/20 00:58:22;;;;;;;15.20;12.50;;;;;;;;;;5067740;28;20431;-81
2022/08/20 01:00:49;;;;;;;13.40;11.93;;;;;;;;;;5068142;28;20433;-80
2022/08/20 01:03:19;;;;;;;17.48;12.52;;;;;;;;;;5069874;28;20439;-80
2022/08/20 01:05:47;;;;;;;14.67;12.30;;;;;;;;;;5066312;28;20860;-82
2022/08/20 01:08:15;;;;;;;16.07;13.17;;;;;;;;;;5068868;28;20427;-81
2022/08/20 01:10:43;;;;;;;15.30;13.17;;;;;;;;;;5071156;28;20514;-80
2022/08/20 01:13:11;;;;;;;14.00;12.50;;;;;;;;;;5068191;28;20432;-81
2022/08/20 01:15:39;;;;;;;13.57;11.80;;;;;;;;;;5068183;28;20434;-81
2022/08/20 01:18:09;;;;;;;18.33;13.38;;;;;;;;;;5069177;28;20424;-80
2022/08/20 01:20:39;;;;;;;13.50;11.80;;;;;;;;;;5071342;28;20427;-80
2022/08/20 01:23:29;;;;;;;13.45;11.55;;;;;;;;;;5068511;28;20498;-80
2022/08/20 01:26:01;;;;;;;15.88;12.20;;;;;;;;;;5071240;28;20473;-82
2022/08/20 01:28:29;;;;;;;13.38;11.07;;;;;;;;;;5067753;28;20900;-82
2022/08/20 01:30:56;;;;;;;12.52;11.23;;;;;;;;;;5068656;28;20458;-80
2022/08/20 01:33:22;;;;;;;13.77;11.98;;;;;;;;;;5063130;28;20423;-81
2022/08/20 01:35:49;;;;;;;15.80;11.27;;;;;;;;;;5060760;28;20422;-81
2022/08/20 01:38:17;;;;;;;13.68;11.93;;;;;;;;;;5061392;28;20442;-83
2022/08/20 01:41:01;;;;;;;14.60;11.90;;;;;;;;;;5099583;28;20429;-82
2022/08/20 01:43:29;;;;;;;14.50;11.88;;;;;;;;;;5057718;28;20442;-80
2022/08/20 01:45:56;;;;;;;14.98;11.50;;;;;;;;;;5069347;28;20423;-81
2022/08/20 01:48:22;;;;;;;11.88;10.60;;;;;;;;;;5065880;28;20423;-80
2022/08/20 01:50:54;;;;;;;11.30;10.02;;;;;;;;;;5066731;28;20975;-82
2022/08/20 01:53:24;;;;;;;10.38;9.27;;;;;;;;;;5070738;28;20419;-81
2022/08/20 01:55:50;;;;;;;12.97;10.77;;;;;;;;;;5070481;28;20423;-81
2022/08/20 01:58:17;;;;;;;13.90;10.60;;;;;;;;;;5068578;28;20805;-81
2022/08/20 02:00:45;;;;;;;10.35;9.27;;;;;;;;;;5068206;28;20415;-80
2022/08/20 02:03:11;;;;;;;12.23;10.40;;;;;;;;;;5068295;28;20427;-80
2022/08/20 02:05:38;;;;;;;10.27;9.07;;;;;;;;;;5075484;28;20440;-81
2022/08/20 02:08:05;;;;;;;11.52;10.32;;;;;;;;;;5073877;28;20434;-80
2022/08/20 02:10:31;;;;;;;10.13;9.13;;;;;;;;;;5073727;28;20723;-81
2022/08/20 02:12:58;;;;;;;9.65;8.70;;;;;;;;;;5074937;28;20477;-80
2022/08/20 02:15:24;;;;;;;11.50;10.30;;;;;;;;;;5069810;28;20526;-81
2022/08/20 02:17:52;;;;;;;10.90;9.80;;;;;;;;;;5072014;28;20423;-81
2022/08/20 02:20:20;;;;;;;11.63;10.43;;;;;;;;;;5074165;28;20494;-81
2022/08/20 02:22:49;;;;;;;11.93;10.63;;;;;;;;;;5076542;28;20447;-82
2022/08/20 02:25:16;;;;;;;9.70;8.63;;;;;;;;;;5064476;28;20928;-81
2022/08/20 02:27:44;;;;;;;11.60;8.50;;;;;;;;;;5073371;28;20427;-80
2022/08/20 02:30:13;;;;;;;8.77;7.97;;;;;;;;;;5064825;28;20513;-80
2022/08/20 02:32:42;;;;;;;12.00;9.55;;;;;;;;;;5072378;28;20431;-80
2022/08/20 02:35:11;;;;;;;10.55;9.30;;;;;;;;;;5072609;28;20431;-81
2022/08/20 02:37:38;;;;;;;10.32;9.23;;;;;;;;;;5072461;28;20481;-79
2022/08/20 02:40:07;;;;;;;10.50;9.40;;;;;;;;;;5071274;28;20434;-82
2022/08/20 02:42:34;;;;;;;9.57;8.68;;;;;;;;;;5071754;28;20485;-82
2022/08/20 02:45:00;;;;;;;11.40;10.20;;;;;;;;;;5072519;28;20426;-82
2022/08/20 02:47:27;;;;;;;10.90;9.90;;;;;;;;;;5073577;28;20438;-82
2022/08/20 02:49:54;;;;;;;10.73;9.70;;;;;;;;;;5071152;28;20496;-82
2022/08/20 02:52:22;;;;;;;11.50;10.30;;;;;;;;;;5071639;28;20435;-80
2022/08/20 02:54:50;;;;;;;12.32;11.13;;;;;;;;;;5070812;28;20430;-83
2022/08/20 02:57:19;;;;;;;12.70;11.40;;;;;;;;;;5074605;28;20484;-82
2022/08/20 02:59:45;;;;;;;12.85;11.55;;;;;;;;;;5072073;28;20531;-83
2022/08/20 03:02:11;;;;;;;15.00;13.40;;;;;;;;;;5071344;28;20427;-83
2022/08/20 03:04:38;;;;;;;13.50;12.10;;;;;;;;;;5070498;28;20423;-82
2022/08/20 03:07:05;;;;;;;15.73;13.95;;;;;;;;;;5074022;28;20432;-80
2022/08/20 03:09:33;;;;;;;16.20;14.50;;;;;;;;;;5071701;28;20427;-80
2022/08/20 03:11:59;;;;;;;16.48;13.38;;;;;;;;;;5073423;28;20428;-81
2022/08/20 03:14:26;;;;;;;13.53;12.13;;;;;;;;;;5072091;28;20473;-81
2022/08/20 03:16:52;;;;;;;13.23;11.93;;;;;;;;;;5071772;28;20435;-81
2022/08/20 03:19:18;;;;;;;14.30;12.80;;;;;;;;;;5070453;28;20420;-81
2022/08/20 03:21:45;;;;;;;13.80;12.40;;;;;;;;;;5067357;28;20433;-81
2022/08/20 03:24:11;;;;;;;14.80;12.93;;;;;;;;;;5071527;28;20419;-81
2022/08/20 03:26:39;;;;;;;14.10;12.70;;;;;;;;;;5072804;28;20432;-81
2022/08/20 03:29:06;;;;;;;15.68;14.05;;;;;;;;;;5070588;28;20427;-83
2022/08/20 03:31:33;;;;;;;15.13;13.52;;;;;;;;;;5071185;28;20431;-80
2022/08/20 03:34:00;;;;;;;13.88;12.38;;;;;;;;;;5071123;28;20446;-80
2022/08/20 03:36:28;;;;;;;12.45;11.15;;;;;;;;;;5071425;28;20435;-82
2022/08/20 03:38:54;;;;;;;14.03;12.17;;;;;;;;;;5066902;28;20408;-80
2022/08/20 03:41:21;;;;;;;14.13;12.63;;;;;;;;;;5071656;28;20432;-80
2022/08/20 03:43:49;;;;;;;13.10;11.80;;;;;;;;;;5072015;28;20435;-81
2022/08/20 03:46:16;;;;;;;13.20;11.90;;;;;;;;;;5069407;28;20431;-80
2022/08/20 03:48:42;;;;;;;13.40;12.00;;;;;;;;;;5063955;28;20427;-80
2022/08/20 03:51:08;;;;;;;13.10;11.27;;;;;;;;;;5072499;28;20432;-80
2022/08/20 03:53:35;;;;;;;13.10;11.80;;;;;;;;;;5071712;28;20469;-81
2022/08/20 03:56:04;;;;;;;13.63;12.23;;;;;;;;;;5069598;28;21341;-81
2022/08/20 03:58:34;;;;;;;13.18;11.88;;;;;;;;;;5071248;28;20431;-81
2022/08/20 04:01:02;;;;;;;12.43;11.13;;;;;;;;;;5068803;28;20797;-80
2022/08/20 04:03:29;;;;;;;15.35;12.27;;;;;;;;;;5067846;28;20957;-83
2022/08/20 04:05:55;;;;;;;14.18;12.77;;;;;;;;;;5073429;28;20506;-80
2022/08/20 04:08:25;;;;;;;14.40;12.90;;;;;;;;;;5072524;28;20871;-83
2022/08/20 04:10:51;;;;;;;15.02;13.43;;;;;;;;;;5072591;28;20428;-81
2022/08/20 04:13:19;;;;;;;16.38;14.43;;;;;;;;;;5068051;28;20904;-80
2022/08/20 04:15:45;;;;;;;16.95;15.15;;;;;;;;;;5065296;28;20434;-81
2022/08/20 04:18:14;;;;;;;19.55;15.57;;;;;;;;;;5067814;28;21087;-81
2022/08/20 04:20:42;;;;;;;16.80;15.00;;;;;;;;;;5071974;28;21035;-81
2022/08/20 04:23:09;;;;;;;17.60;15.05;;;;;;;;;;5070922;28;20412;-80
2022/08/20 04:25:39;;;;;;;17.38;15.48;;;;;;;;;;5067384;28;20437;-81
2022/08/20 04:28:06;;;;;;;21.77;17.67;;;;;;;;;;5063080;28;20510;-82
2022/08/20 04:30:33;;;;;;;20.48;17.27;;;;;;;;;;5070600;28;20435;-81
2022/08/20 04:33:00;;;;;;;20.70;17.83;;;;;;;;;;5065112;28;20427;-81
2022/08/20 04:35:28;;;;;;;22.65;19.45;;;;;;;;;;5067924;28;20423;-80
2022/08/20 04:37:58;;;;;;;20.02;17.58;;;;;;;;;;5069008;28;20424;-81
2022/08/20 04:43:10;;;;;;;24.30;19.50;;;;;;;;;;5068793;28;20511;-81
2022/08/20 04:45:37;;;;;;;24.95;20.75;;;;;;;;;;5070488;28;20984;-82
2022/08/20 04:48:05;;;;;;;23.38;18.50;;;;;;;;;;5066444;28;20435;-82
2022/08/20 04:50:35;;;;;;;26.27;20.65;;;;;;;;;;5069228;28;20462;-82
2022/08/20 04:53:01;;;;;;;28.10;21.70;;;;;;;;;;5072655;28;20518;-82
2022/08/20 04:55:28;;;;;;;26.83;21.13;;;;;;;;;;5070109;28;20428;-81
2022/08/20 04:57:56;;;;;;;23.73;19.60;;;;;;;;;;5070641;28;20450;-81
2022/08/20 05:00:23;;;;;;;25.17;20.20;;;;;;;;;;5068389;28;20426;-82
2022/08/20 05:02:49;;;;;;;27.98;21.25;;;;;;;;;;5069072;28;20427;-82
2022/08/20 05:05:15;;;;;;;23.63;20.08;;;;;;;;;;5070256;28;20439;-81
2022/08/20 05:07:45;;;;;;;25.27;20.27;;;;;;;;;;5065689;28;20427;-81
2022/08/20 05:10:12;;;;;;;26.52;20.45;;;;;;;;;;5068377;28;20446;-81
2022/08/20 05:12:40;;;;;;;28.38;21.58;;;;;;;;;;5070187;28;20471;-82
2022/08/20 05:15:07;;;;;;;25.30;20.00;;;;;;;;;;5068538;28;20424;-81
2022/08/20 05:17:34;;;;;;;24.60;21.45;;;;;;;;;;5067852;28;20439;-81
2022/08/20 05:20:00;;;;;;;27.92;22.17;;;;;;;;;;5067040;28;20423;-82
2022/08/20 05:22:28;;;;;;;23.60;19.77;;;;;;;;;;5064656;28;20510;-82
2022/08/20 05:24:58;;;;;;;27.33;20.45;;;;;;;;;;5067503;28;20477;-81
2022/08/20 05:27:26;;;;;;;25.15;20.23;;;;;;;;;;5068392;28;20451;-80
2022/08/20 05:29:54;;;;;;;32.70;22.20;;;;;;;;;;5069042;28;20436;-79
2022/08/20 05:32:21;;;;;;;27.00;21.30;;;;;;;;;;5070187;28;20927;-80
2022/08/20 05:34:48;;;;;;;27.67;23.17;;;;;;;;;;5065639;28;20427;-81
2022/08/20 05:37:15;;;;;;;26.10;21.10;;;;;;;;;;5067389;28;20423;-81
2022/08/20 05:39:42;;;;;;;29.20;23.45;;;;;;;;;;5070833;28;20451;-81
2022/08/20 05:42:10;;;;;;;27.08;22.52;;;;;;;;;;5072982;28;20506;-81
2022/08/20 05:44:37;;;;;;;28.77;23.27;;;;;;;;;;5071201;28;20427;-82
2022/08/20 05:47:04;;;;;;;30.75;24.70;;;;;;;;;;5074519;28;20437;-82
2022/08/20 05:49:32;;;;;;;33.78;25.55;;;;;;;;;;5071302;28;20423;-81
2022/08/20 05:51:59;;;;;;;33.70;26.80;;;;;;;;;;5074782;28;20431;-80
2022/08/20 05:54:26;;;;;;;35.35;26.88;;;;;;;;;;5076822;28;20413;-81
2022/08/20 05:56:55;;;;;;;36.78;28.50;;;;;;;;;;5075863;28;20428;-82
2022/08/20 05:59:23;;;;;;;34.45;26.80;;;;;;;;;;5072529;28;20419;-81
2022/08/20 06:01:50;;;;;;;29.70;25.02;;;;;;;;;;5068660;28;20850;-81
2022/08/20 06:04:26;;;;;;;31.85;25.52;;;;;;;;;;5069715;28;20437;-81
2022/08/20 06:06:53;;;;;;;30.73;24.80;;;;;;;;;;5072683;28;20419;-81
2022/08/20 06:09:21;;;;;;;28.83;22.83;;;;;;;;;;5070008;28;20427;-82
2022/08/20 06:11:47;;;;;;;24.60;21.30;;;;;;;;;;5069589;28;20438;-81
2022/08/20 06:14:15;;;;;;;23.48;19.70;;;;;;;;;;5075342;28;20446;-82
2022/08/20 06:16:43;;;;;;;25.17;18.20;;;;;;;;;;5072410;28;20438;-81
2022/08/20 06:19:10;;;;;;;22.50;18.60;;;;;;;;;;5076135;28;20408;-81
2022/08/20 06:21:36;;;;;;;20.73;17.27;;;;;;;;;;5075187;28;20473;-81
2022/08/20 06:24:03;;;;;;;19.15;17.13;;;;;;;;;;5078600;28;20415;-82
2022/08/20 06:26:30;;;;;;;18.15;15.35;;;;;;;;;;5077836;28;20416;-80
2022/08/20 06:28:56;;;;;;;21.25;15.75;;;;;;;;;;5077172;28;20415;-83
2022/08/20 06:31:23;;;;;;;18.98;15.30;;;;;;;;;;5075392;28;20427;-83
2022/08/20 06:33:50;;;;;;;19.00;15.77;;;;;;;;;;5077257;28;20743;-83
2022/08/20 06:36:17;;;;;;;20.42;15.10;;;;;;;;;;5077820;28;20411;-83
2022/08/20 06:38:45;;;;;;;20.73;15.23;;;;;;;;;;5075797;28;20398;-83
2022/08/20 06:41:11;;;;;;;18.25;15.57;;;;;;;;;;5077902;28;20411;-82
2022/08/20 06:43:38;;;;;;;24.15;14.75;;;;;;;;;;5075863;28;20411;-85
2022/08/20 06:46:05;;;;;;;21.48;15.50;;;;;;;;;;5075159;28;20424;-81
2022/08/20 06:48:32;;;;;;;18.73;14.80;;;;;;;;;;5067491;28;20424;-83
2022/08/20 06:51:00;;;;;;;17.65;13.77;;;;;;;;;;5076644;28;20751;-82
2022/08/20 06:53:27;;;;;;;18.17;13.40;;;;;;;;;;5074124;28;20436;-81
2022/08/20 06:55:54;;;;;;;19.50;13.55;;;;;;;;;;5071591;28;20439;-82
2022/08/20 06:58:21;;;;;;;16.05;12.70;;;;;;;;;;5069208;28;20489;-83
2022/08/20 07:00:47;;;;;;;14.60;10.90;;;;;;;;;;5074521;28;20424;-81
2022/08/20 07:03:14;;;;;;;14.90;10.40;;;;;;;;;;5076040;28;20415;-83
2022/08/20 07:05:42;;;;;;;17.27;11.35;;;;;;;;;;5075340;28;20458;-82
2022/08/20 07:08:12;;;;;;;14.90;9.90;;;;;;;;;;5076260;28;20407;-81
2022/08/20 07:10:40;;;;;;;16.52;10.27;;;;;;;;;;5073069;28;20426;-82
2022/08/20 07:13:07;;;;;;;14.50;10.00;;;;;;;;;;5076612;28;20416;-82
2022/08/20 07:15:33;;;;;;;13.63;9.75;;;;;;;;;;5075135;28;20416;-84
2022/08/20 07:18:02;;;;;;;12.30;9.10;;;;;;;;;;5077085;28;20411;-83
2022/08/20 07:20:30;;;;;;;13.85;8.95;;;;;;;;;;5076474;28;20424;-81
2022/08/20 07:22:57;;;;;;;13.60;9.38;;;;;;;;;;5077471;28;20411;-82
2022/08/20 07:25:25;;;;;;;13.18;8.30;;;;;;;;;;5075079;28;22226;-82
2022/08/20 07:27:51;;;;;;;13.57;7.90;;;;;;;;;;5104623;28;20431;-82
2022/08/20 07:33:05;;;;;;;14.20;7.70;;;;;;;;;;5075704;28;20422;-83
2022/08/20 07:35:31;;;;;;;13.85;6.90;;;;;;;;;;5077608;28;20793;-83
2022/08/20 07:37:58;;;;;;;11.35;6.35;;;;;;;;;;5074593;28;20457;-84
2022/08/20 07:40:27;;;;;;;14.95;7.45;;;;;;;;;;5076929;28;21007;-84
2022/08/20 07:42:54;;;;;;;11.98;6.40;;;;;;;;;;5075896;28;20493;-83
2022/08/20 07:45:21;;;;;;;12.33;6.40;;;;;;;;;;5073878;28;20460;-82
2022/08/20 07:47:48;;;;;;;13.20;6.60;;;;;;;;;;5071455;28;20427;-82
2022/08/20 07:50:16;;;;;;;11.52;6.40;;;;;;;;;;5073877;28;20424;-82
2022/08/20 07:52:44;;;;;;;13.90;6.40;;;;;;;;;;5068920;28;20438;-83
2022/08/20 07:55:11;;;;;;;14.27;6.72;;;;;;;;;;5075225;28;20448;-83
2022/08/20 07:57:40;;;;;;;13.55;5.90;;;;;;;;;;5077405;28;20415;-82
2022/08/20 08:00:07;;;;;;;11.80;5.80;;;;;;;;;;5072048;28;20427;-82
2022/08/20 08:02:35;;;;;;;13.73;5.90;;;;;;;;;;5073514;28;20427;-81
2022/08/20 08:05:01;;;;;;;12.80;6.53;;;;;;;;;;5074251;28;20499;-83
2022/08/20 08:07:28;;;;;;;13.55;5.30;;;;;;;;;;5074949;28;20524;-82
2022/08/20 08:09:57;;;;;;;10.55;5.18;;;;;;;;;;5075059;28;21011;-83
2022/08/20 08:12:24;;;;;;;10.05;4.95;;;;;;;;;;5076285;28;20988;-81
2022/08/20 08:14:53;;;;;;;9.75;4.30;;;;;;;;;;5074592;28;20420;-80
2022/08/20 08:17:20;;;;;;;9.55;4.90;;;;;;;;;;5073932;28;20423;-86
2022/08/20 08:19:48;;;;;;;10.07;4.55;;;;;;;;;;5074024;28;20420;-84
2022/08/20 08:22:16;;;;;;;11.27;4.75;;;;;;;;;;5076096;28;20422;-82
2022/08/20 08:24:45;;;;;;;9.55;5.03;;;;;;;;;;5074741;28;20420;-84
2022/08/20 08:27:12;;;;;;;10.27;4.72;;;;;;;;;;5075165;28;20420;-84
2022/08/20 08:29:38;;;;;;;11.80;4.50;;;;;;;;;;5067786;28;20412;-83
2022/08/20 08:32:07;;;;;;;10.70;4.35;;;;;;;;;;5073234;28;20427;-84
2022/08/20 08:34:34;;;;;;;11.93;4.28;;;;;;;;;;5075923;28;20431;-85
2022/08/20 08:37:01;;;;;;;8.60;3.70;;;;;;;;;;5076575;28;20419;-84
2022/08/20 08:39:29;;;;;;;8.45;4.10;;;;;;;;;;5069192;28;20421;-83
2022/08/20 08:41:57;;;;;;;14.55;4.55;;;;;;;;;;5075307;28;20422;-81
2022/08/20 08:44:26;;;;;;;8.13;4.30;;;;;;;;;;5072979;28;20414;-81
2022/08/20 08:46:55;;;;;;;10.10;3.65;;;;;;;;;;5071392;28;20423;-82
2022/08/20 08:49:26;;;;;;;12.52;3.60;;;;;;;;;;5072025;28;21569;-81
2022/08/20 08:51:58;;;;;;;10.18;3.30;;;;;;;;;;5073815;28;20427;-83
2022/08/20 08:54:26;;;;;;;8.32;3.53;;;;;;;;;;5071108;28;20416;-83
2022/08/20 08:56:53;;;;;;;6.80;2.80;;;;;;;;;;5075529;28;20419;-81
2022/08/20 08:59:20;;;;;;;9.33;2.83;;;;;;;;;;5071361;28;20506;-82
2022/08/20 09:01:47;;;;;;;8.60;3.20;;;;;;;;;;5073936;28;20416;-81
2022/08/20 09:04:15;;;;;;;9.00;3.20;;;;;;;;;;5073464;28;20480;-85
2022/08/20 09:06:43;;;;;;;9.77;2.93;;;;;;;;;;5094010;28;20774;-81
2022/08/20 09:09:15;;;;;;;8.13;2.58;;;;;;;;;;5072793;28;20494;-82
2022/08/20 09:11:45;;;;;;;8.73;2.80;;;;;;;;;;5073796;28;20491;-81
2022/08/20 09:14:12;;;;;;;5.10;2.53;;;;;;;;;;5071814;28;20419;-82
2022/08/20 09:16:39;;;;;;;8.27;2.50;;;;;;;;;;5071974;28;20420;-81
2022/08/20 09:19:05;;;;;;;7.20;2.03;;;;;;;;;;5063825;28;20428;-84
2022/08/20 09:21:32;;;;;;;4.43;2.10;;;;;;;;;;5070883;28;20423;-83
2022/08/20 09:23:59;;;;;;;6.43;1.83;;;;;;;;;;5071623;28;20416;-84
2022/08/20 09:26:26;;;;;;;6.32;2.00;;;;;;;;;;5074980;28;20943;-83
2022/08/20 09:28:53;;;;;;;4.35;1.85;;;;;;;;;;5071272;28;20412;-84
2022/08/20 09:31:19;;;;;;;7.63;2.38;;;;;;;;;;5074682;28;20423;-82
2022/08/20 09:33:45;;;;;;;6.32;1.90;;;;;;;;;;5071250;28;20407;-84
2022/08/20 09:36:12;;;;;;;6.07;1.90;;;;;;;;;;5069937;28;20438;-84
2022/08/20 09:38:40;;;;;;;6.00;2.00;;;;;;;;;;5070164;28;20429;-82
2022/08/20 09:41:08;;;;;;;7.28;2.38;;;;;;;;;;5069244;28;20428;-82
2022/08/20 09:43:34;;;;;;;6.18;2.05;;;;;;;;;;5068117;28;20435;-83
2022/08/20 09:46:00;;;;;;;7.00;2.40;;;;;;;;;;5070926;28;20423;-82
2022/08/20 09:48:27;;;;;;;5.23;2.00;;;;;;;;;;5071120;28;20824;-81
2022/08/20 09:50:54;;;;;;;7.05;2.22;;;;;;;;;;5070371;28;20426;-83
2022/08/20 09:53:20;;;;;;;6.40;2.10;;;;;;;;;;5064565;28;20419;-81
2022/08/20 09:55:52;;;;;;;8.57;2.10;;;;;;;;;;5104358;28;20422;-81
2022/08/20 09:58:21;;;;;;;8.73;2.40;;;;;;;;;;5072069;28;20468;-84
2022/08/20 10:00:48;;;;;;;6.55;1.88;;;;;;;;;;5068461;28;20428;-82
2022/08/20 10:03:15;;;;;;;4.90;1.77;;;;;;;;;;5069417;28;20438;-81
2022/08/20 10:05:41;;;;;;;5.88;1.80;;;;;;;;;;5068336;28;20431;-82
2022/08/20 10:08:10;;;;;;;4.88;1.77;;;;;;;;;;5067655;28;20419;-83
2022/08/20 10:10:36;;;;;;;4.00;1.70;;;;;;;;;;5070140;28;20450;-81
2022/08/20 10:13:03;;;;;;;4.87;2.00;;;;;;;;;;5068600;28;20935;-83
2022/08/20 10:15:31;;;;;;;3.47;1.48;;;;;;;;;;5066847;28;20430;-83
2022/08/20 10:17:57;;;;;;;5.30;1.87;;;;;;;;;;5070882;28;21049;-82
2022/08/20 10:20:24;;;;;;;5.22;1.58;;;;;;;;;;5070656;28;20434;-80
2022/08/20 10:22:51;;;;;;;9.18;2.58;;;;;;;;;;5069021;28;20431;-82
2022/08/20 10:25:18;;;;;;;7.75;2.42;;;;;;;;;;5060233;28;20488;-80
2022/08/20 10:27:45;;;;;;;7.25;1.80;;;;;;;;;;5066748;28;20789;-80
2022/08/20 10:30:11;;;;;;;4.60;1.80;;;;;;;;;;5067703;28;20423;-82
2022/08/20 10:32:39;;;;;;;7.70;2.10;;;;;;;;;;5073657;28;20423;-81
2022/08/20 10:35:06;;;;;;;7.25;2.08;;;;;;;;;;5069246;28;20453;-79
2022/08/20 10:37:33;;;;;;;3.83;1.85;;;;;;;;;;5073895;28;20409;-81
2022/08/20 10:40:00;;;;;;;4.55;1.90;;;;;;;;;;5074160;28;21028;-82
2022/08/20 10:42:26;;;;;;;8.02;2.00;;;;;;;;;;5073552;28;20438;-82
2022/08/20 10:44:52;;;;;;;7.78;2.20;;;;;;;;;;5069018;28;21007;-82
2022/08/20 10:47:21;;;;;;;5.82;2.17;;;;;;;;;;5072208;28;20427;-81
2022/08/20 10:49:49;;;;;;;5.68;2.10;;;;;;;;;;5071798;28;20423;-81
2022/08/20 10:52:16;;;;;;;5.13;2.00;;;;;;;;;;5072057;28;20431;-80
2022/08/20 10:54:42;;;;;;;3.75;1.60;;;;;;;;;;5072815;28;20490;-82
2022/08/20 10:57:09;;;;;;;4.90;2.10;;;;;;;;;;5077019;28;20945;-82
2022/08/20 10:59:39;;;;;;;6.47;1.98;;;;;;;;;;5073550;28;20404;-81
2022/08/20 11:02:05;;;;;;;5.75;1.98;;;;;;;;;;5073748;28;20431;-81
2022/08/20 11:04:32;;;;;;;7.65;1.90;;;;;;;;;;5074569;28;20428;-82
2022/08/20 11:07:09;;;;;;;5.20;2.03;;;;;;;;;;5076466;28;20497;-82
2022/08/20 11:09:36;;;;;;;5.85;2.10;;;;;;;;;;5074171;28;20799;-82
2022/08/20 11:12:02;;;;;;;6.10;1.80;;;;;;;;;;5076916;28;20439;-82
2022/08/20 11:14:30;;;;;;;6.63;2.17;;;;;;;;;;5073536;28;20432;-82
2022/08/20 11:16:56;;;;;;;6.60;2.10;;;;;;;;;;5067010;28;20431;-80
2022/08/20 11:19:22;;;;;;;6.70;2.40;;;;;;;;;;5063575;28;20420;-81
2022/08/20 11:21:49;;;;;;;5.43;1.77;;;;;;;;;;5074573;28;20434;-81
2022/08/20 11:24:17;;;;;;;8.23;1.95;;;;;;;;;;5069022;28;20459;-81
2022/08/20 11:26:45;;;;;;;6.57;2.00;;;;;;;;;;5070425;28;20518;-80
2022/08/20 11:29:12;;;;;;;6.90;2.00;;;;;;;;;;5071885;28;20431;-81
2022/08/20 11:31:38;;;;;;;5.80;1.90;;;;;;;;;;5071125;28;20427;-82
2022/08/20 11:34:05;;;;;;;8.13;1.80;;;;;;;;;;5072405;28;20423;-81
2022/08/20 11:36:31;;;;;;;6.63;2.03;;;;;;;;;;5072757;28;20463;-83
2022/08/20 11:38:59;;;;;;;5.13;1.70;;;;;;;;;;5073514;28;20423;-82
2022/08/20 11:41:27;;;;;;;5.63;1.75;;;;;;;;;;5074618;28;20423;-80
2022/08/20 11:43:53;;;;;;;6.10;1.90;;;;;;;;;;5074689;28;20785;-81
2022/08/20 11:46:19;;;;;;;3.70;1.30;;;;;;;;;;5069074;28;20431;-81
2022/08/20 11:48:46;;;;;;;4.47;2.00;;;;;;;;;;5063387;28;20408;-81
2022/08/20 11:51:12;;;;;;;3.88;1.77;;;;;;;;;;5075166;28;20423;-81
2022/08/20 11:53:38;;;;;;;3.88;1.80;;;;;;;;;;5071990;28;20427;-80
2022/08/20 11:56:05;;;;;;;6.80;2.10;;;;;;;;;;5074443;28;20431;-81
2022/08/20 11:58:33;;;;;;;4.78;1.90;;;;;;;;;;5072165;28;20474;-81
2022/08/20 12:00:59;;;;;;;5.40;1.80;;;;;;;;;;5073696;28;20465;-82
2022/08/20 12:03:26;;;;;;;5.10;1.70;;;;;;;;;;5069848;28;20432;-80
2022/08/20 12:05:52;;;;;;;5.07;1.80;;;;;;;;;;5072430;28;20428;-81
2022/08/20 12:08:19;;;;;;;5.20;1.88;;;;;;;;;;5072502;28;20465;-81
2022/08/20 12:10:45;;;;;;;8.15;1.90;;;;;;;;;;5072836;28;20419;-78
2022/08/20 12:13:12;;;;;;;5.25;2.00;;;;;;;;;;5070576;28;20620;-82
2022/08/20 12:15:39;;;;;;;4.88;1.90;;;;;;;;;;5071636;28;20483;-80
2022/08/20 12:18:06;;;;;;;5.18;1.90;;;;;;;;;;5072333;28;20438;-79
2022/08/20 12:20:33;;;;;;;4.25;1.80;;;;;;;;;;5070514;28;20506;-81
2022/08/20 12:22:59;;;;;;;5.25;1.70;;;;;;;;;;5071342;28;20427;-80
2022/08/20 12:25:26;;;;;;;6.10;1.75;;;;;;;;;;5103959;28;20421;-79
2022/08/20 12:27:53;;;;;;;6.60;1.67;;;;;;;;;;5062588;28;20480;-79
2022/08/20 12:30:20;;;;;;;3.80;1.67;;;;;;;;;;5071633;28;20426;-81
2022/08/20 12:32:50;;;;;;;4.68;1.65;;;;;;;;;;5071180;28;20424;-81
2022/08/20 12:35:18;;;;;;;7.28;1.65;;;;;;;;;;5065019;28;20431;-81
2022/08/20 12:37:45;;;;;;;5.50;1.80;;;;;;;;;;5070934;28;20840;-79
2022/08/20 12:40:12;;;;;;;3.90;1.70;;;;;;;;;;5070676;28;20423;-82
2022/08/20 12:42:38;;;;;;;4.10;1.40;;;;;;;;;;5072649;28;20428;-80
2022/08/20 12:45:05;;;;;;;5.18;1.70;;;;;;;;;;5067888;28;20802;-79
2022/08/20 12:47:32;;;;;;;4.63;1.50;;;;;;;;;;5067541;28;20433;-84
2022/08/20 12:50:01;;;;;;;3.40;1.60;;;;;;;;;;5071835;28;20809;-79
2022/08/20 12:52:28;;;;;;;5.20;2.00;;;;;;;;;;5073548;28;20428;-80
2022/08/20 12:54:55;;;;;;;5.15;1.75;;;;;;;;;;5068173;28;20433;-81
2022/08/20 12:57:27;;;;;;;6.20;1.40;;;;;;;;;;5071897;28;20432;-82
2022/08/20 12:59:53;;;;;;;4.13;1.60;;;;;;;;;;5072230;28;20433;-81
2022/08/20 13:02:19;;;;;;;6.40;2.00;;;;;;;;;;5068096;28;20438;-78
2022/08/20 13:04:46;;;;;;;6.95;2.00;;;;;;;;;;5069202;28;20435;-80
2022/08/20 13:07:14;;;;;;;6.03;1.60;;;;;;;;;;5070384;28;20430;-79
2022/08/20 13:09:42;;;;;;;6.47;1.80;;;;;;;;;;5071260;28;21038;-81
2022/08/20 13:12:08;;;;;;;7.53;1.90;;;;;;;;;;5072710;28;20422;-79
2022/08/20 13:14:35;;;;;;;6.80;2.30;;;;;;;;;;5068565;28;20936;-81
2022/08/20 13:17:02;;;;;;;3.33;1.60;;;;;;;;;;5067956;28;20451;-83
2022/08/20 13:19:29;;;;;;;4.15;1.70;;;;;;;;;;5072071;28;20424;-83
2022/08/20 13:21:56;;;;;;;5.30;1.70;;;;;;;;;;5069862;28;20439;-80
2022/08/20 13:24:24;;;;;;;5.00;1.70;;;;;;;;;;5071099;28;20517;-81
2022/08/20 13:26:50;;;;;;;6.32;1.77;;;;;;;;;;5072557;28;21399;-82
2022/08/20 13:29:18;;;;;;;4.30;1.70;;;;;;;;;;5073165;28;20490;-82
2022/08/20 13:31:44;;;;;;;4.17;2.00;;;;;;;;;;5070754;28;20423;-82
2022/08/20 13:34:12;;;;;;;5.00;2.08;;;;;;;;;;5069560;28;20420;-82
2022/08/20 13:36:41;;;;;;;6.00;2.10;;;;;;;;;;5065625;28;20421;-81
2022/08/20 13:39:08;;;;;;;3.35;1.60;;;;;;;;;;5068722;28;20436;-81
2022/08/20 13:41:35;;;;;;;5.25;1.50;;;;;;;;;;5070551;28;20944;-82
2022/08/20 13:44:02;;;;;;;6.13;1.90;;;;;;;;;;5070993;28;20408;-80
2022/08/20 13:46:28;;;;;;;4.13;1.63;;;;;;;;;;5070802;28;20440;-82
2022/08/20 13:48:55;;;;;;;5.57;1.83;;;;;;;;;;5070134;28;20438;-82
2022/08/20 13:51:21;;;;;;;3.95;1.40;;;;;;;;;;5069251;28;20430;-80
2022/08/20 13:53:47;;;;;;;4.57;2.00;;;;;;;;;;5069055;28;20402;-80
2022/08/20 13:56:16;;;;;;;5.68;1.50;;;;;;;;;;5064674;28;20925;-80
2022/08/20 13:58:44;;;;;;;6.53;2.10;;;;;;;;;;5072097;28;21034;-81
2022/08/20 14:01:10;;;;;;;5.95;1.70;;;;;;;;;;5069792;28;20459;-81
2022/08/20 14:03:37;;;;;;;4.43;1.40;;;;;;;;;;5073772;28;20440;-82
2022/08/20 14:06:03;;;;;;;6.03;2.10;;;;;;;;;;5076374;28;20439;-82
2022/08/20 14:08:30;;;;;;;5.45;1.65;;;;;;;;;;5075780;28;20420;-81
2022/08/20 14:10:56;;;;;;;5.30;1.45;;;;;;;;;;5074194;28;20462;-82
2022/08/20 14:13:23;;;;;;;6.85;1.90;;;;;;;;;;5075426;28;20439;-81
2022/08/20 14:15:51;;;;;;;4.32;2.00;;;;;;;;;;5075404;28;20965;-81
2022/08/20 14:18:18;;;;;;;4.85;1.60;;;;;;;;;;5077273;28;20427;-82
2022/08/20 14:20:45;;;;;;;4.70;1.90;;;;;;;;;;5074003;28;20423;-82
2022/08/20 14:23:11;;;;;;;4.18;1.50;;;;;;;;;;5076061;28;20434;-81
2022/08/20 14:25:38;;;;;;;4.07;1.40;;;;;;;;;;5072452;28;20433;-81
2022/08/20 14:28:10;;;;;;;3.25;1.55;;;;;;;;;;5070893;28;20432;-81
2022/08/20 14:30:37;;;;;;;3.05;1.20;;;;;;;;;;5070526;28;20474;-82
2022/08/20 14:33:05;;;;;;;2.55;1.40;;;;;;;;;;5075815;28;20423;-82
2022/08/20 14:35:31;;;;;;;7.30;1.50;;;;;;;;;;5077534;28;20787;-83
2022/08/20 14:37:59;;;;;;;3.90;1.50;;;;;;;;;;5109349;28;20422;-80